createdAt,value
2019-01-17T00:00:20.995Z,21.30
2019-01-17T00:02:55.121Z,21.37
2019-01-17T00:05:28.947Z,20.07
2019-01-17T00:08:05.479Z,20.67
2019-01-17T00:10:47.964Z,19.73
2019-01-17T00:13:25.559Z,20.97
2019-01-17T00:15:57.758Z,19.90
2019-01-17T00:18:35.546Z,21.50
2019-01-17T00:21:22.994Z,21.37
2019-01-17T00:24:03.306Z,21.80
2019-01-17T00:26:35.111Z,22.90
2019-01-17T00:29:16.042Z,21.77
2019-01-17T00:31:47.273Z,22.07
2019-01-17T00:34:18.327Z,23.23
2019-01-17T00:36:58.862Z,22.37
2019-01-17T00:39:40.070Z,22.77
2019-01-17T00:42:20.276Z,23.60
2019-01-17T00:44:51.219Z,23.40
2019-01-17T00:47:28.140Z,24.40
2019-01-17T00:50:05.161Z,24.40
2019-01-17T00:52:52.264Z,24.40
2019-01-17T00:55:27.918Z,24.50
2019-01-17T00:58:13.766Z,24.30
2019-01-17T01:00:47.631Z,23.83
2019-01-17T01:03:21.712Z,24.77
2019-01-17T01:06:01.671Z,24.13
2019-01-17T01:08:35.535Z,23.97
2019-01-17T01:11:06.564Z,25.20
2019-01-17T01:13:47.456Z,25.17
2019-01-17T01:16:21.706Z,24.27
2019-01-17T01:19:01.682Z,24.50
2019-01-17T01:21:46.584Z,24.40
2019-01-17T01:24:20.117Z,24.93
2019-01-17T01:26:56.999Z,24.20
2019-01-17T01:29:41.523Z,23.90
2019-01-17T01:32:31.074Z,23.67
2019-01-17T01:35:16.442Z,24.43
2019-01-17T01:37:47.657Z,23.77
2019-01-17T01:40:24.323Z,24.37
2019-01-17T01:43:05.200Z,22.83
2019-01-17T01:45:39.336Z,23.80
2019-01-17T01:48:11.458Z,23.43
2019-01-17T01:50:58.907Z,22.83
2019-01-17T01:53:29.692Z,23.33
2019-01-17T01:55:58.852Z,23.57
2019-01-17T01:58:28.355Z,23.20
2019-01-17T02:00:57.969Z,22.70
2019-01-17T02:03:29.465Z,23.07
2019-01-17T02:05:58.937Z,23.80
2019-01-17T02:08:28.589Z,23.47
2019-01-17T02:10:58.876Z,22.43
2019-01-17T02:13:28.348Z,21.97
2019-01-17T02:16:01.823Z,22.53
2019-01-17T02:18:30.981Z,22.73
2019-01-17T02:21:00.276Z,21.50
2019-01-17T02:23:29.526Z,22.10
2019-01-17T02:25:59.837Z,22.10
2019-01-17T02:28:29.365Z,23.47
2019-01-17T02:30:58.844Z,20.97
2019-01-17T02:33:28.089Z,22.23
2019-01-17T02:36:02.479Z,22.07
2019-01-17T02:38:31.874Z,21.33
2019-01-17T02:41:01.401Z,22.17
2019-01-17T02:43:30.914Z,20.90
2019-01-17T02:46:00.470Z,21.67
2019-01-17T02:48:29.903Z,21.40
2019-01-17T02:51:00.260Z,22.27
2019-01-17T02:53:29.808Z,23.40
2019-01-17T02:55:59.629Z,22.53
2019-01-17T02:58:30.022Z,23.60
2019-01-17T03:00:59.488Z,23.07
2019-01-17T03:03:29.054Z,23.03
2019-01-17T03:05:58.591Z,22.57
2019-01-17T03:08:28.117Z,23.10
2019-01-17T03:10:57.553Z,24.10
2019-01-17T03:13:27.991Z,23.17
2019-01-17T03:15:57.586Z,23.80
2019-01-17T03:18:28.206Z,23.17
2019-01-17T03:20:57.574Z,23.47
2019-01-17T03:23:27.122Z,23.90
2019-01-17T03:25:56.587Z,23.13
2019-01-17T03:28:26.944Z,25.73
2019-01-17T03:30:56.389Z,23.63
2019-01-17T03:33:25.546Z,24.83
2019-01-17T03:35:55.250Z,23.73
2019-01-17T03:38:24.534Z,25.47
2019-01-17T03:40:54.058Z,23.73
2019-01-17T03:43:23.549Z,25.93
2019-01-17T03:45:53.023Z,24.47
2019-01-17T03:48:22.276Z,23.73
2019-01-17T03:50:51.659Z,23.60
2019-01-17T03:53:21.123Z,23.17
2019-01-17T03:55:52.635Z,22.40
2019-01-17T03:58:22.039Z,24.40
2019-01-17T04:00:52.521Z,22.17
2019-01-17T04:03:21.768Z,23.23
2019-01-17T04:05:51.988Z,24.63
2019-01-17T04:08:21.448Z,22.87
2019-01-17T04:10:50.943Z,23.80
2019-01-17T04:13:20.145Z,23.63
2019-01-17T04:15:50.362Z,22.83
2019-01-17T04:18:19.526Z,22.53
2019-01-17T04:20:49.032Z,21.83
2019-01-17T04:23:18.252Z,21.60
2019-01-17T04:25:47.600Z,23.80
2019-01-17T04:28:17.093Z,22.10
2019-01-17T04:30:46.665Z,21.70
2019-01-17T04:33:16.085Z,21.07
2019-01-17T04:35:51.661Z,21.83
2019-01-17T04:38:21.021Z,21.77
2019-01-17T04:40:53.214Z,20.40
2019-01-17T04:43:23.579Z,20.87
2019-01-17T04:45:53.868Z,20.37
2019-01-17T04:48:23.015Z,19.83
2019-01-17T04:50:52.487Z,20.57
2019-01-17T04:53:21.954Z,20.27
2019-01-17T04:55:51.461Z,20.63
2019-01-17T04:58:20.664Z,20.20
2019-01-17T05:00:50.125Z,19.30
2019-01-17T05:03:19.566Z,19.93
2019-01-17T05:05:50.014Z,18.53
2019-01-17T05:08:19.483Z,20.70
2019-01-17T05:10:48.902Z,19.57
2019-01-17T05:13:18.222Z,18.27
2019-01-17T05:15:53.385Z,18.77
2019-01-17T05:18:22.780Z,18.10
2019-01-17T05:20:52.284Z,18.07
2019-01-17T05:23:21.755Z,19.40
2019-01-17T05:25:52.895Z,18.20
2019-01-17T05:28:22.123Z,17.37
2019-01-17T05:30:51.574Z,17.47
2019-01-17T05:33:21.078Z,16.93
2019-01-17T05:35:50.543Z,16.70
2019-01-17T05:38:20.131Z,16.77
2019-01-17T05:40:49.514Z,15.73
2019-01-17T05:43:18.842Z,16.67
2019-01-17T05:45:48.209Z,15.80
2019-01-17T05:48:17.652Z,15.87
2019-01-17T05:50:47.228Z,14.93
2019-01-17T05:53:18.691Z,15.67
2019-01-17T05:55:47.920Z,15.13
2019-01-17T05:58:17.336Z,15.83
2019-01-17T06:00:48.970Z,14.63
2019-01-17T06:03:18.340Z,15.50
2019-01-17T06:05:49.516Z,14.70
2019-01-17T06:08:19.883Z,15.47
2019-01-17T06:10:50.138Z,14.50
2019-01-17T06:13:19.990Z,13.80
2019-01-17T06:15:49.491Z,15.47
2019-01-17T06:18:18.644Z,15.57
2019-01-17T06:20:47.839Z,16.33
2019-01-17T06:23:17.421Z,15.87
2019-01-17T06:25:46.764Z,15.67
2019-01-17T06:28:17.173Z,16.20
2019-01-17T06:30:46.653Z,15.33
2019-01-17T06:33:16.204Z,15.17
2019-01-17T06:35:45.655Z,15.10
2019-01-17T06:38:15.097Z,15.73
2019-01-17T06:40:44.264Z,14.63
2019-01-17T06:43:14.568Z,13.57
2019-01-17T06:45:44.873Z,13.03
2019-01-17T06:48:14.507Z,12.37
2019-01-17T06:50:43.981Z,13.20
2019-01-17T06:53:13.433Z,13.23
2019-01-17T06:55:42.885Z,13.83
2019-01-17T06:58:13.246Z,13.50
2019-01-17T07:00:42.697Z,12.30
2019-01-17T07:03:12.024Z,12.17
2019-01-17T07:05:41.733Z,11.90
2019-01-17T07:08:11.303Z,11.60
2019-01-17T07:10:40.802Z,12.53
2019-01-17T07:13:10.554Z,12.23
2019-01-17T07:15:39.734Z,12.93
2019-01-17T07:18:10.133Z,12.43
2019-01-17T07:20:39.628Z,12.87
2019-01-17T07:23:09.162Z,11.97
2019-01-17T07:25:41.073Z,13.13
2019-01-17T07:28:09.474Z,13.83
2019-01-17T07:30:38.806Z,13.67
2019-01-17T07:33:07.974Z,14.47
2019-01-17T07:35:37.484Z,13.70
2019-01-17T07:38:07.758Z,12.97
2019-01-17T07:40:36.919Z,13.27
2019-01-17T07:43:06.407Z,14.77
2019-01-17T07:45:36.251Z,13.47
2019-01-17T07:48:05.491Z,14.10
2019-01-17T07:50:34.891Z,12.70
2019-01-17T07:53:05.074Z,11.67
2019-01-17T07:55:34.421Z,9.93
2019-01-17T07:58:04.267Z,10.63
2019-01-17T08:00:33.767Z,9.40
2019-01-17T08:03:03.615Z,10.13
2019-01-17T08:05:33.992Z,9.90
2019-01-17T08:08:03.455Z,10.10
2019-01-17T08:10:32.774Z,10.20
2019-01-17T08:13:02.150Z,9.80
2019-01-17T08:15:31.809Z,9.77
2019-01-17T08:18:01.121Z,8.40
2019-01-17T08:20:30.599Z,8.80
2019-01-17T08:23:00.201Z,10.03
2019-01-17T08:25:29.714Z,9.53
2019-01-17T08:27:59.257Z,9.40
2019-01-17T08:30:28.665Z,9.97
2019-01-17T08:32:58.974Z,10.77
2019-01-17T08:35:28.434Z,10.60
2019-01-17T08:37:57.919Z,9.33
2019-01-17T08:40:30.391Z,9.43
2019-01-17T08:43:00.017Z,9.90
2019-01-17T08:45:29.393Z,10.90
2019-01-17T08:47:59.724Z,9.73
2019-01-17T08:50:29.326Z,9.30
2019-01-17T08:52:59.912Z,10.07
2019-01-17T08:55:29.790Z,10.33
2019-01-17T08:57:59.340Z,10.47
2019-01-17T09:00:28.793Z,10.13
2019-01-17T09:02:57.959Z,10.60
2019-01-17T09:05:27.561Z,9.90
2019-01-17T09:07:57.056Z,10.47
2019-01-17T09:10:28.838Z,11.00
2019-01-17T09:12:58.048Z,11.43
2019-01-17T09:15:29.977Z,10.90
2019-01-17T09:18:05.124Z,10.03
2019-01-17T09:20:35.489Z,10.90
2019-01-17T09:23:06.718Z,10.70
2019-01-17T09:25:36.250Z,10.37
2019-01-17T09:28:05.531Z,10.43
2019-01-17T09:30:34.914Z,10.00
2019-01-17T09:33:04.776Z,10.27
2019-01-17T09:35:33.943Z,10.83
2019-01-17T09:38:03.323Z,10.17
2019-01-17T09:40:32.810Z,11.97
2019-01-17T09:43:02.249Z,10.43
2019-01-17T09:45:32.668Z,11.30
2019-01-17T09:48:05.999Z,11.50
2019-01-17T09:50:35.720Z,10.53
2019-01-17T09:53:05.405Z,11.17
2019-01-17T09:55:34.798Z,11.77
2019-01-17T09:58:04.187Z,10.87
2019-01-17T10:00:34.878Z,11.73
2019-01-17T10:03:07.211Z,10.10
2019-01-17T10:05:45.917Z,11.37
2019-01-17T10:08:16.202Z,11.00
2019-01-17T10:10:45.736Z,12.20
2019-01-17T10:13:15.332Z,9.53
2019-01-17T10:15:47.789Z,9.97
2019-01-17T10:18:41.144Z,9.47
2019-01-17T10:21:24.804Z,9.87
2019-01-17T10:24:09.283Z,8.20
2019-01-17T10:26:53.485Z,9.63
2019-01-17T10:29:40.733Z,9.57
2019-01-17T10:32:15.963Z,9.30
2019-01-17T10:35:07.753Z,8.37
2019-01-17T10:37:44.762Z,9.40
2019-01-17T10:40:22.708Z,9.43
2019-01-17T10:42:58.007Z,10.07
2019-01-17T10:45:46.975Z,10.10
2019-01-17T10:48:37.406Z,10.27
2019-01-17T10:51:21.836Z,9.83
2019-01-17T10:54:13.526Z,10.63
2019-01-17T10:56:51.829Z,9.60
2019-01-17T10:59:37.439Z,9.90
2019-01-17T11:02:12.321Z,9.70
2019-01-17T11:04:53.656Z,10.53
2019-01-17T11:07:31.665Z,11.67
2019-01-17T11:10:15.910Z,11.20
2019-01-17T11:12:48.357Z,11.23
2019-01-17T11:15:23.181Z,11.40
2019-01-17T11:18:05.426Z,11.63
2019-01-17T11:20:54.436Z,11.80
2019-01-17T11:23:27.170Z,12.20
2019-01-17T11:26:05.090Z,11.37
2019-01-17T11:28:52.078Z,12.03
2019-01-17T11:31:27.234Z,11.97
2019-01-17T11:34:14.434Z,12.13
2019-01-17T11:37:04.872Z,11.73
2019-01-17T11:39:46.051Z,12.80
2019-01-17T11:42:26.603Z,12.77
2019-01-17T11:45:17.194Z,12.70
2019-01-17T11:47:58.998Z,13.40
2019-01-17T11:50:46.220Z,12.93
2019-01-17T11:53:38.600Z,13.60
2019-01-17T11:56:20.014Z,14.20
2019-01-17T11:59:04.363Z,13.63
2019-01-17T12:01:45.662Z,13.27
2019-01-17T12:04:31.235Z,13.97
2019-01-17T12:07:06.833Z,14.93
2019-01-17T12:09:36.027Z,14.97
2019-01-17T12:12:05.547Z,13.73
2019-01-17T12:14:34.699Z,15.00
2019-01-17T12:17:03.971Z,14.03
2019-01-17T12:19:33.215Z,14.33
2019-01-17T12:22:02.447Z,14.30
2019-01-17T12:24:31.646Z,14.20
2019-01-17T12:27:00.955Z,14.47
2019-01-17T12:29:33.148Z,14.67
2019-01-17T12:32:02.477Z,14.23
2019-01-17T12:34:36.014Z,13.70
2019-01-17T12:37:05.262Z,15.00
2019-01-17T12:39:34.729Z,14.63
2019-01-17T12:42:05.005Z,14.40
2019-01-17T12:44:34.447Z,14.17
2019-01-17T12:47:04.984Z,14.57
2019-01-17T12:49:34.416Z,14.93
2019-01-17T12:52:03.915Z,14.20
2019-01-17T12:54:33.356Z,14.83
2019-01-17T12:57:02.798Z,15.10
2019-01-17T12:59:33.221Z,15.00
2019-01-17T13:02:02.659Z,14.33
2019-01-17T13:04:33.229Z,15.87
2019-01-17T13:07:02.450Z,15.57
2019-01-17T13:09:31.732Z,14.90
2019-01-17T13:12:00.969Z,15.30
2019-01-17T13:14:30.210Z,14.80
2019-01-17T13:16:59.670Z,13.70
2019-01-17T13:19:29.235Z,14.67
2019-01-17T13:21:58.723Z,14.97
2019-01-17T13:24:28.586Z,14.30
2019-01-17T13:27:00.908Z,13.77
2019-01-17T13:29:29.291Z,13.63
2019-01-17T13:31:59.650Z,13.27
2019-01-17T13:34:29.216Z,15.07
2019-01-17T13:36:58.986Z,13.80
2019-01-17T13:39:28.589Z,14.53
2019-01-17T13:41:58.966Z,14.17
2019-01-17T13:44:28.791Z,14.83
2019-01-17T13:46:58.263Z,14.50
2019-01-17T13:49:27.736Z,13.80
2019-01-17T13:51:57.245Z,15.53
2019-01-17T13:54:27.785Z,13.60
2019-01-17T13:56:58.331Z,14.40
2019-01-17T13:59:27.797Z,19.27
2019-01-17T14:01:57.339Z,14.07
2019-01-17T14:04:26.812Z,14.50
2019-01-17T14:06:57.303Z,16.97
2019-01-17T14:09:27.571Z,14.47
2019-01-17T14:11:57.111Z,14.63
2019-01-17T14:14:26.487Z,14.80
2019-01-17T14:16:56.017Z,14.60
2019-01-17T14:19:25.485Z,15.17
2019-01-17T14:21:55.934Z,14.13
2019-01-17T14:24:25.357Z,14.47
2019-01-17T14:26:54.822Z,14.40
2019-01-17T14:29:24.000Z,15.17
2019-01-17T14:31:53.237Z,13.67
2019-01-17T14:34:22.500Z,13.83
2019-01-17T14:36:52.027Z,13.77
2019-01-17T14:39:21.532Z,14.90
2019-01-17T14:41:50.687Z,15.67
2019-01-17T14:44:20.130Z,14.37
2019-01-17T14:46:49.331Z,14.53
2019-01-17T14:49:19.002Z,14.23
2019-01-17T14:51:48.364Z,12.93
2019-01-17T14:54:17.827Z,13.87
2019-01-17T14:56:47.333Z,14.07
2019-01-17T14:59:16.784Z,13.40
2019-01-17T15:01:46.337Z,13.67
2019-01-17T15:04:15.759Z,13.83
2019-01-17T15:06:45.397Z,13.10
2019-01-17T15:09:15.170Z,14.00
2019-01-17T15:11:44.678Z,13.20
2019-01-17T15:14:14.195Z,13.77
2019-01-17T15:16:43.737Z,13.40
2019-01-17T15:19:13.209Z,12.17
2019-01-17T15:21:42.712Z,13.40
2019-01-17T15:24:12.253Z,13.10
2019-01-17T15:26:41.770Z,13.43
2019-01-17T15:29:11.217Z,13.53
2019-01-17T15:31:40.424Z,13.27
2019-01-17T15:34:12.009Z,13.70
2019-01-17T15:36:41.207Z,12.93
2019-01-17T15:39:10.848Z,13.77
2019-01-17T15:41:40.093Z,13.13
2019-01-17T15:44:12.245Z,13.00
2019-01-17T15:46:42.714Z,13.77
2019-01-17T15:49:12.254Z,13.53
2019-01-17T15:51:41.741Z,14.50
2019-01-17T15:54:11.248Z,14.53
2019-01-17T15:56:42.903Z,14.40
2019-01-17T15:59:13.074Z,14.30
2019-01-17T16:01:46.327Z,15.10
2019-01-17T16:04:15.504Z,14.13
2019-01-17T16:06:51.846Z,15.23
2019-01-17T16:09:21.317Z,14.67
2019-01-17T16:11:50.523Z,14.67
2019-01-17T16:14:19.964Z,14.17
2019-01-17T16:16:49.451Z,14.70
2019-01-17T16:19:18.971Z,15.23
2019-01-17T16:21:52.526Z,14.53
2019-01-17T16:24:21.761Z,14.93
2019-01-17T16:26:51.154Z,15.17
2019-01-17T16:29:21.481Z,17.60
2019-01-17T16:31:51.042Z,16.23
2019-01-17T16:34:20.485Z,16.93
2019-01-17T16:36:50.937Z,18.87
2019-01-17T16:39:20.302Z,19.13
2019-01-17T16:41:49.730Z,19.03
2019-01-17T16:44:19.020Z,18.20
2019-01-17T16:46:48.293Z,17.97
2019-01-17T16:49:17.580Z,16.80
2019-01-17T16:51:47.209Z,17.33
2019-01-17T16:54:16.523Z,17.43
2019-01-17T16:56:45.686Z,17.20
2019-01-17T16:59:15.170Z,17.60
2019-01-17T17:01:44.623Z,17.10
2019-01-17T17:04:13.868Z,16.33
2019-01-17T17:06:43.211Z,16.77
2019-01-17T17:09:12.509Z,16.90
2019-01-17T17:11:41.727Z,17.77
2019-01-17T17:14:10.946Z,18.70
2019-01-17T17:16:40.447Z,17.57
2019-01-17T17:19:09.606Z,18.43
2019-01-17T17:21:39.118Z,16.70
2019-01-17T17:24:08.282Z,15.37
2019-01-17T17:26:37.640Z,15.40
2019-01-17T17:29:08.288Z,16.87
2019-01-17T17:31:38.749Z,16.03
2019-01-17T17:34:07.926Z,16.10
2019-01-17T17:36:37.376Z,16.17
2019-01-17T17:39:08.437Z,16.10
2019-01-17T17:41:37.939Z,15.57
2019-01-17T17:44:07.222Z,15.57
2019-01-17T17:46:36.797Z,16.23
2019-01-17T17:49:06.059Z,16.10
2019-01-17T17:51:35.731Z,17.03
2019-01-17T17:54:05.130Z,19.43
2019-01-17T17:56:34.627Z,19.53
2019-01-17T17:59:04.451Z,22.73
2019-01-17T18:01:34.281Z,25.00
2019-01-17T18:04:04.332Z,30.40
2019-01-17T18:06:34.795Z,26.73
2019-01-17T18:09:07.064Z,26.83
2019-01-17T18:11:36.671Z,28.20
2019-01-17T18:14:06.538Z,28.17
2019-01-17T18:16:35.926Z,27.90
2019-01-17T18:19:05.175Z,32.37
2019-01-17T18:21:36.662Z,34.20
2019-01-17T18:24:07.242Z,32.93
2019-01-17T18:26:48.878Z,34.33
2019-01-17T18:29:20.347Z,29.13
2019-01-17T18:31:50.570Z,27.60
2019-01-17T18:34:19.767Z,29.57
2019-01-17T18:36:52.063Z,30.03
2019-01-17T18:39:21.626Z,27.90
2019-01-17T18:41:51.106Z,29.70
2019-01-17T18:44:20.640Z,29.03
2019-01-17T18:46:50.301Z,28.97
2019-01-17T18:49:23.956Z,29.27
2019-01-17T18:51:53.195Z,32.43
2019-01-17T18:54:22.812Z,32.90
2019-01-17T18:56:52.305Z,33.03
2019-01-17T18:59:21.750Z,31.70
2019-01-17T19:01:51.268Z,29.83
2019-01-17T19:04:20.820Z,28.00
2019-01-17T19:06:53.563Z,28.33
2019-01-17T19:09:25.119Z,30.83
2019-01-17T19:11:55.477Z,30.43
2019-01-17T19:14:26.943Z,31.00
2019-01-17T19:16:56.604Z,34.67
2019-01-17T19:19:25.966Z,38.07
2019-01-17T19:21:55.446Z,35.43
2019-01-17T19:24:25.834Z,32.00
2019-01-17T19:26:55.358Z,31.13
2019-01-17T19:29:30.881Z,27.50
2019-01-17T19:32:02.164Z,26.93
2019-01-17T19:34:33.707Z,24.60
2019-01-17T19:37:03.195Z,24.53
2019-01-17T19:39:35.825Z,24.67
2019-01-17T19:42:08.758Z,23.57
2019-01-17T19:44:42.379Z,23.80
2019-01-17T19:47:12.613Z,24.90
2019-01-17T19:49:42.923Z,20.77
2019-01-17T19:52:12.239Z,24.70
2019-01-17T19:54:44.572Z,21.47
2019-01-17T19:57:13.912Z,22.47
2019-01-17T19:59:43.501Z,23.80
2019-01-17T20:02:12.995Z,22.47
2019-01-17T20:04:42.478Z,23.17
2019-01-17T20:07:15.472Z,22.80
2019-01-17T20:09:44.961Z,22.13
2019-01-17T20:12:14.288Z,21.90
2019-01-17T20:14:43.745Z,21.60
2019-01-17T20:17:13.249Z,21.00
2019-01-17T20:19:42.729Z,22.97
2019-01-17T20:22:12.003Z,22.93
2019-01-17T20:24:41.324Z,22.83
2019-01-17T20:27:10.502Z,23.10
2019-01-17T20:29:40.024Z,22.70
2019-01-17T20:32:09.517Z,21.37
2019-01-17T20:34:38.978Z,22.23
2019-01-17T20:37:08.556Z,22.77
2019-01-17T20:39:38.038Z,24.20
2019-01-17T20:44:55.843Z,24.47
2019-01-17T20:47:25.313Z,25.83
2019-01-17T20:49:54.897Z,25.90
2019-01-17T20:52:24.611Z,27.47
2019-01-17T20:54:53.945Z,28.47
2019-01-17T20:57:23.690Z,27.53
2019-01-17T20:59:53.275Z,25.20
2019-01-17T21:02:22.962Z,27.73
2019-01-17T21:04:52.489Z,28.13
2019-01-17T21:07:22.119Z,29.07
2019-01-17T21:09:51.393Z,31.07
2019-01-17T21:12:20.770Z,27.27
2019-01-17T21:14:50.090Z,26.23
2019-01-17T21:17:19.574Z,26.17
2019-01-17T21:19:48.874Z,25.80
2019-01-17T21:22:18.077Z,24.47
2019-01-17T21:24:47.556Z,23.97
2019-01-17T21:27:16.977Z,23.37
2019-01-17T21:29:46.177Z,28.20
2019-01-17T21:32:15.576Z,31.70
2019-01-17T21:34:44.978Z,27.17
2019-01-17T21:37:14.245Z,22.83
2019-01-17T21:39:43.846Z,20.83
2019-01-17T21:42:13.253Z,20.07
2019-01-17T21:44:42.844Z,22.00
2019-01-17T21:47:12.201Z,23.07
2019-01-17T21:49:41.550Z,24.93
2019-01-17T21:52:10.924Z,24.60
2019-01-17T21:54:40.329Z,24.17
2019-01-17T21:57:09.895Z,23.73
2019-01-17T21:59:40.209Z,26.27
2019-01-17T22:02:09.667Z,25.27
2019-01-17T22:04:39.157Z,25.47
2019-01-17T22:07:08.361Z,28.00
2019-01-17T22:09:38.047Z,26.00
2019-01-17T22:12:07.325Z,28.00
2019-01-17T22:14:37.165Z,26.07
2019-01-17T22:17:06.411Z,25.50
2019-01-17T22:19:35.774Z,22.57
2019-01-17T22:22:05.394Z,21.40
2019-01-17T22:24:34.903Z,20.83
2019-01-17T22:27:04.590Z,19.83
2019-01-17T22:29:33.862Z,19.23
2019-01-17T22:32:03.461Z,18.60
2019-01-17T22:34:32.833Z,19.17
2019-01-17T22:37:02.360Z,19.43
2019-01-17T22:39:31.881Z,18.27
2019-01-17T22:42:01.347Z,17.70
2019-01-17T22:44:31.232Z,16.53
2019-01-17T22:47:00.395Z,16.47
2019-01-17T22:49:29.905Z,17.10
2019-01-17T22:51:59.728Z,15.33
2019-01-17T22:54:28.932Z,13.97
2019-01-17T22:56:58.349Z,14.23
2019-01-17T22:59:27.550Z,12.93
2019-01-17T23:01:57.196Z,12.63
2019-01-17T23:04:26.619Z,11.40
2019-01-17T23:06:56.081Z,11.00
2019-01-17T23:09:27.669Z,11.57
2019-01-17T23:11:57.172Z,12.03
2019-01-17T23:14:26.600Z,12.73
2019-01-17T23:16:56.227Z,15.27
2019-01-17T23:19:25.673Z,15.47
2019-01-17T23:21:55.952Z,19.17
2019-01-17T23:24:25.392Z,19.63
2019-01-17T23:26:54.964Z,19.03
2019-01-17T23:29:24.562Z,19.17
2019-01-17T23:31:54.034Z,19.43
2019-01-17T23:34:23.389Z,21.03
2019-01-17T23:36:52.602Z,24.90
2019-01-17T23:39:21.922Z,30.70
2019-01-17T23:41:52.308Z,27.97
2019-01-17T23:44:21.853Z,22.60
2019-01-17T23:46:51.344Z,21.17
2019-01-17T23:49:27.854Z,21.00
2019-01-17T23:51:57.489Z,20.70
2019-01-17T23:54:26.903Z,18.87
2019-01-17T23:56:56.857Z,19.83
2019-01-17T23:59:27.105Z,21.07
